sensor_id;sensor_type;location;lat;lon;timestamp;P1;durP1;ratioP1;P2;durP2;ratioP2
64842;SDS011;51310;52.198;5.422;2022-10-12T00:01:00;19.43;;;9.20;;
64842;SDS011;51310;52.198;5.422;2022-10-12T00:03:29;17.45;;;8.98;;
64842;SDS011;51310;52.198;5.422;2022-10-12T00:05:59;18.27;;;9.00;;
64842;SDS011;51310;52.198;5.422;2022-10-12T00:08:31;19.85;;;9.18;;
64842;SDS011;51310;52.198;5.422;2022-10-12T00:10:59;18.17;;;9.10;;
64842;SDS011;51310;52.198;5.422;2022-10-12T00:13:26;14.43;;;8.48;;
64842;SDS011;51310;52.198;5.422;2022-10-12T00:15:52;16.35;;;9.00;;
64842;SDS011;51310;52.198;5.422;2022-10-12T00:18:18;18.33;;;8.73;;
64842;SDS011;51310;52.198;5.422;2022-10-12T00:20:44;15.97;;;8.93;;
64842;SDS011;51310;52.198;5.422;2022-10-12T00:23:11;15.73;;;8.68;;
64842;SDS011;51310;52.198;5.422;2022-10-12T00:25:40;17.95;;;8.73;;
64842;SDS011;51310;52.198;5.422;2022-10-12T00:28:06;14.15;;;8.63;;
64842;SDS011;51310;52.198;5.422;2022-10-12T00:30:33;16.80;;;8.32;;
64842;SDS011;51310;52.198;5.422;2022-10-12T00:33:04;17.15;;;7.95;;
64842;SDS011;51310;52.198;5.422;2022-10-12T00:35:30;13.73;;;8.00;;
64842;SDS011;51310;52.198;5.422;2022-10-12T00:37:55;15.80;;;8.15;;
64842;SDS011;51310;52.198;5.422;2022-10-12T00:40:22;17.30;;;8.25;;
64842;SDS011;51310;52.198;5.422;2022-10-12T00:42:48;13.57;;;8.02;;
64842;SDS011;51310;52.198;5.422;2022-10-12T00:45:14;15.85;;;9.20;;
64842;SDS011;51310;52.198;5.422;2022-10-12T00:47:43;17.42;;;8.60;;
64842;SDS011;51310;52.198;5.422;2022-10-12T00:50:17;13.32;;;8.27;;
64842;SDS011;51310;52.198;5.422;2022-10-12T00:52:59;15.88;;;8.32;;
64842;SDS011;51310;52.198;5.422;2022-10-12T00:55:49;15.70;;;8.05;;
64842;SDS011;51310;52.198;5.422;2022-10-12T00:58:23;19.60;;;9.18;;
64842;SDS011;51310;52.198;5.422;2022-10-12T01:00:51;21.90;;;8.88;;
64842;SDS011;51310;52.198;5.422;2022-10-12T01:03:17;19.05;;;9.25;;
64842;SDS011;51310;52.198;5.422;2022-10-12T01:05:47;18.77;;;8.48;;
64842;SDS011;51310;52.198;5.422;2022-10-12T01:08:13;15.02;;;9.57;;
64842;SDS011;51310;52.198;5.422;2022-10-12T01:10:39;19.05;;;9.52;;
64842;SDS011;51310;52.198;5.422;2022-10-12T01:13:05;19.52;;;9.68;;
64842;SDS011;51310;52.198;5.422;2022-10-12T01:15:32;21.88;;;9.82;;
64842;SDS011;51310;52.198;5.422;2022-10-12T01:18:45;18.95;;;10.05;;
64842;SDS011;51310;52.198;5.422;2022-10-12T01:21:41;22.88;;;9.55;;
64842;SDS011;51310;52.198;5.422;2022-10-12T01:30:25;18.02;;;9.23;;
64842;SDS011;51310;52.198;5.422;2022-10-12T01:35:44;17.15;;;8.52;;
64842;SDS011;51310;52.198;5.422;2022-10-12T01:38:55;19.88;;;8.50;;
64842;SDS011;51310;52.198;5.422;2022-10-12T01:41:48;23.50;;;9.45;;
64842;SDS011;51310;52.198;5.422;2022-10-12T01:44:20;21.20;;;9.98;;
64842;SDS011;51310;52.198;5.422;2022-10-12T01:46:49;22.17;;;9.68;;
64842;SDS011;51310;52.198;5.422;2022-10-12T01:49:19;20.35;;;9.52;;
64842;SDS011;51310;52.198;5.422;2022-10-12T01:55:04;21.73;;;9.73;;
64842;SDS011;51310;52.198;5.422;2022-10-12T02:01:06;20.20;;;9.43;;
64842;SDS011;51310;52.198;5.422;2022-10-12T02:07:01;17.35;;;8.18;;
64842;SDS011;51310;52.198;5.422;2022-10-12T02:09:36;21.33;;;8.80;;
64842;SDS011;51310;52.198;5.422;2022-10-12T02:12:05;19.38;;;8.05;;
64842;SDS011;51310;52.198;5.422;2022-10-12T02:14:52;14.43;;;7.95;;
64842;SDS011;51310;52.198;5.422;2022-10-12T02:17:24;20.23;;;8.70;;
64842;SDS011;51310;52.198;5.422;2022-10-12T02:19:57;20.40;;;8.15;;
64842;SDS011;51310;52.198;5.422;2022-10-12T02:22:27;17.23;;;7.88;;
64842;SDS011;51310;52.198;5.422;2022-10-12T02:25:00;17.55;;;8.07;;
64842;SDS011;51310;52.198;5.422;2022-10-12T02:27:34;16.40;;;8.32;;
64842;SDS011;51310;52.198;5.422;2022-10-12T02:30:07;18.00;;;7.90;;
64842;SDS011;51310;52.198;5.422;2022-10-12T02:36:07;16.07;;;8.03;;
64842;SDS011;51310;52.198;5.422;2022-10-12T02:38:27;13.35;;;7.70;;
64842;SDS011;51310;52.198;5.422;2022-10-12T02:41:39;15.82;;;7.32;;
64842;SDS011;51310;52.198;5.422;2022-10-12T02:44:14;15.70;;;7.82;;
64842;SDS011;51310;52.198;5.422;2022-10-12T02:46:48;18.00;;;7.90;;
64842;SDS011;51310;52.198;5.422;2022-10-12T02:49:18;17.35;;;7.65;;
64842;SDS011;51310;52.198;5.422;2022-10-12T02:51:49;16.83;;;7.65;;
64842;SDS011;51310;52.198;5.422;2022-10-12T02:54:15;14.85;;;7.20;;
64842;SDS011;51310;52.198;5.422;2022-10-12T02:56:42;12.77;;;7.05;;
64842;SDS011;51310;52.198;5.422;2022-10-12T02:59:10;14.27;;;7.30;;
64842;SDS011;51310;52.198;5.422;2022-10-12T03:01:38;16.40;;;7.70;;
64842;SDS011;51310;52.198;5.422;2022-10-12T03:04:04;16.35;;;7.28;;
64842;SDS011;51310;52.198;5.422;2022-10-12T03:06:30;15.77;;;7.25;;
64842;SDS011;51310;52.198;5.422;2022-10-12T03:08:56;12.13;;;7.23;;
64842;SDS011;51310;52.198;5.422;2022-10-12T03:11:22;17.70;;;6.97;;
64842;SDS011;51310;52.198;5.422;2022-10-12T03:13:51;16.92;;;6.90;;
64842;SDS011;51310;52.198;5.422;2022-10-12T03:16:21;14.53;;;7.60;;
64842;SDS011;51310;52.198;5.422;2022-10-12T03:18:48;14.47;;;7.17;;
64842;SDS011;51310;52.198;5.422;2022-10-12T03:21:15;17.52;;;7.57;;
64842;SDS011;51310;52.198;5.422;2022-10-12T03:23:41;15.40;;;6.90;;
64842;SDS011;51310;52.198;5.422;2022-10-12T03:26:07;17.95;;;7.43;;
64842;SDS011;51310;52.198;5.422;2022-10-12T03:28:33;14.27;;;7.07;;
64842;SDS011;51310;52.198;5.422;2022-10-12T03:31:00;14.60;;;6.75;;
64842;SDS011;51310;52.198;5.422;2022-10-12T03:33:26;15.80;;;7.18;;
64842;SDS011;51310;52.198;5.422;2022-10-12T03:35:52;16.95;;;7.53;;
64842;SDS011;51310;52.198;5.422;2022-10-12T03:38:18;14.90;;;7.30;;
64842;SDS011;51310;52.198;5.422;2022-10-12T03:40:44;13.27;;;7.53;;
64842;SDS011;51310;52.198;5.422;2022-10-12T03:43:11;17.73;;;8.00;;
64842;SDS011;51310;52.198;5.422;2022-10-12T03:45:38;14.88;;;7.30;;
64842;SDS011;51310;52.198;5.422;2022-10-12T03:48:04;13.40;;;6.93;;
64842;SDS011;51310;52.198;5.422;2022-10-12T03:50:32;15.05;;;7.40;;
64842;SDS011;51310;52.198;5.422;2022-10-12T03:52:59;15.35;;;7.32;;
64842;SDS011;51310;52.198;5.422;2022-10-12T03:55:26;14.50;;;7.07;;
64842;SDS011;51310;52.198;5.422;2022-10-12T03:57:52;12.43;;;6.97;;
64842;SDS011;51310;52.198;5.422;2022-10-12T04:00:18;11.77;;;6.57;;
64842;SDS011;51310;52.198;5.422;2022-10-12T04:02:44;13.30;;;6.40;;
64842;SDS011;51310;52.198;5.422;2022-10-12T04:05:10;12.00;;;6.40;;
64842;SDS011;51310;52.198;5.422;2022-10-12T04:07:36;15.63;;;6.75;;
64842;SDS011;51310;52.198;5.422;2022-10-12T04:10:02;10.70;;;6.38;;
64842;SDS011;51310;52.198;5.422;2022-10-12T04:12:29;13.00;;;6.45;;
64842;SDS011;51310;52.198;5.422;2022-10-12T04:14:55;12.10;;;6.50;;
64842;SDS011;51310;52.198;5.422;2022-10-12T04:17:21;14.98;;;6.57;;
64842;SDS011;51310;52.198;5.422;2022-10-12T04:19:46;14.70;;;6.55;;
64842;SDS011;51310;52.198;5.422;2022-10-12T04:22:12;14.32;;;6.85;;
64842;SDS011;51310;52.198;5.422;2022-10-12T04:24:38;17.50;;;7.40;;
64842;SDS011;51310;52.198;5.422;2022-10-12T04:27:04;13.18;;;6.60;;
64842;SDS011;51310;52.198;5.422;2022-10-12T04:29:30;15.88;;;6.70;;
64842;SDS011;51310;52.198;5.422;2022-10-12T04:31:56;12.60;;;6.33;;
64842;SDS011;51310;52.198;5.422;2022-10-12T04:34:22;15.05;;;7.03;;
64842;SDS011;51310;52.198;5.422;2022-10-12T04:36:48;16.05;;;7.13;;
64842;SDS011;51310;52.198;5.422;2022-10-12T04:39:14;15.98;;;6.53;;
64842;SDS011;51310;52.198;5.422;2022-10-12T04:41:40;13.37;;;6.17;;
64842;SDS011;51310;52.198;5.422;2022-10-12T04:44:06;12.85;;;6.30;;
64842;SDS011;51310;52.198;5.422;2022-10-12T04:46:32;14.45;;;7.10;;
64842;SDS011;51310;52.198;5.422;2022-10-12T04:48:58;13.52;;;6.07;;
64842;SDS011;51310;52.198;5.422;2022-10-12T04:51:24;14.43;;;6.50;;
64842;SDS011;51310;52.198;5.422;2022-10-12T04:53:51;13.00;;;6.25;;
64842;SDS011;51310;52.198;5.422;2022-10-12T04:56:17;11.80;;;6.10;;
64842;SDS011;51310;52.198;5.422;2022-10-12T04:58:43;14.82;;;6.95;;
64842;SDS011;51310;52.198;5.422;2022-10-12T05:01:10;13.25;;;6.30;;
64842;SDS011;51310;52.198;5.422;2022-10-12T05:03:36;13.13;;;7.03;;
64842;SDS011;51310;52.198;5.422;2022-10-12T05:06:01;12.35;;;6.13;;
64842;SDS011;51310;52.198;5.422;2022-10-12T05:08:27;11.93;;;6.10;;
64842;SDS011;51310;52.198;5.422;2022-10-12T05:10:53;19.38;;;6.60;;
64842;SDS011;51310;52.198;5.422;2022-10-12T05:13:22;15.50;;;6.68;;
64842;SDS011;51310;52.198;5.422;2022-10-12T05:15:48;14.93;;;6.43;;
64842;SDS011;51310;52.198;5.422;2022-10-12T05:18:13;11.50;;;6.13;;
64842;SDS011;51310;52.198;5.422;2022-10-12T05:20:39;11.27;;;5.95;;
64842;SDS011;51310;52.198;5.422;2022-10-12T05:23:05;11.77;;;6.33;;
64842;SDS011;51310;52.198;5.422;2022-10-12T05:25:31;11.73;;;6.00;;
64842;SDS011;51310;52.198;5.422;2022-10-12T05:27:59;10.63;;;6.00;;
64842;SDS011;51310;52.198;5.422;2022-10-12T05:30:25;13.35;;;6.20;;
64842;SDS011;51310;52.198;5.422;2022-10-12T05:32:51;12.57;;;6.07;;
64842;SDS011;51310;52.198;5.422;2022-10-12T05:35:16;16.40;;;6.35;;
64842;SDS011;51310;52.198;5.422;2022-10-12T05:37:42;13.70;;;6.35;;
64842;SDS011;51310;52.198;5.422;2022-10-12T05:40:08;12.52;;;5.80;;
64842;SDS011;51310;52.198;5.422;2022-10-12T05:42:35;12.48;;;5.95;;
64842;SDS011;51310;52.198;5.422;2022-10-12T05:45:01;11.88;;;5.70;;
64842;SDS011;51310;52.198;5.422;2022-10-12T05:47:28;15.63;;;6.40;;
64842;SDS011;51310;52.198;5.422;2022-10-12T05:49:54;9.75;;;5.70;;
64842;SDS011;51310;52.198;5.422;2022-10-12T05:52:20;15.00;;;6.18;;
64842;SDS011;51310;52.198;5.422;2022-10-12T05:54:46;12.13;;;6.10;;
64842;SDS011;51310;52.198;5.422;2022-10-12T05:57:13;14.45;;;5.85;;
64842;SDS011;51310;52.198;5.422;2022-10-12T05:59:42;12.60;;;5.97;;
64842;SDS011;51310;52.198;5.422;2022-10-12T06:02:11;14.67;;;5.93;;
64842;SDS011;51310;52.198;5.422;2022-10-12T06:04:40;23.23;;;7.03;;
64842;SDS011;51310;52.198;5.422;2022-10-12T06:07:06;13.10;;;5.93;;
64842;SDS011;51310;52.198;5.422;2022-10-12T06:09:32;13.07;;;6.00;;
64842;SDS011;51310;52.198;5.422;2022-10-12T06:11:58;13.40;;;6.13;;
64842;SDS011;51310;52.198;5.422;2022-10-12T06:14:23;11.75;;;5.97;;
64842;SDS011;51310;52.198;5.422;2022-10-12T06:16:49;14.40;;;5.90;;
64842;SDS011;51310;52.198;5.422;2022-10-12T06:19:15;15.50;;;6.60;;
64842;SDS011;51310;52.198;5.422;2022-10-12T06:21:41;16.48;;;5.70;;
64842;SDS011;51310;52.198;5.422;2022-10-12T06:24:07;16.30;;;6.68;;
64842;SDS011;51310;52.198;5.422;2022-10-12T06:26:33;14.30;;;5.95;;
64842;SDS011;51310;52.198;5.422;2022-10-12T06:28:59;13.35;;;6.18;;
64842;SDS011;51310;52.198;5.422;2022-10-12T06:31:25;14.35;;;6.07;;
64842;SDS011;51310;52.198;5.422;2022-10-12T06:33:52;14.13;;;6.10;;
64842;SDS011;51310;52.198;5.422;2022-10-12T06:36:18;9.40;;;5.60;;
64842;SDS011;51310;52.198;5.422;2022-10-12T06:38:44;14.20;;;5.40;;
64842;SDS011;51310;52.198;5.422;2022-10-12T06:41:10;13.82;;;5.90;;
64842;SDS011;51310;52.198;5.422;2022-10-12T06:43:36;12.38;;;5.68;;
64842;SDS011;51310;52.198;5.422;2022-10-12T06:46:02;12.93;;;5.70;;
64842;SDS011;51310;52.198;5.422;2022-10-12T06:48:29;18.10;;;5.78;;
64842;SDS011;51310;52.198;5.422;2022-10-12T06:50:55;12.20;;;6.05;;
64842;SDS011;51310;52.198;5.422;2022-10-12T06:53:21;14.52;;;6.72;;
64842;SDS011;51310;52.198;5.422;2022-10-12T06:55:47;14.48;;;5.97;;
64842;SDS011;51310;52.198;5.422;2022-10-12T06:58:13;14.43;;;5.75;;
64842;SDS011;51310;52.198;5.422;2022-10-12T07:00:39;11.82;;;6.10;;
64842;SDS011;51310;52.198;5.422;2022-10-12T07:03:05;14.88;;;5.53;;
64842;SDS011;51310;52.198;5.422;2022-10-12T07:05:30;12.85;;;5.63;;
64842;SDS011;51310;52.198;5.422;2022-10-12T07:07:56;11.25;;;5.70;;
64842;SDS011;51310;52.198;5.422;2022-10-12T07:10:22;10.83;;;5.57;;
64842;SDS011;51310;52.198;5.422;2022-10-12T07:12:49;13.68;;;5.60;;
64842;SDS011;51310;52.198;5.422;2022-10-12T07:15:14;14.35;;;5.90;;
64842;SDS011;51310;52.198;5.422;2022-10-12T07:17:40;11.20;;;5.57;;
64842;SDS011;51310;52.198;5.422;2022-10-12T07:20:06;14.02;;;5.50;;
64842;SDS011;51310;52.198;5.422;2022-10-12T07:22:32;17.70;;;5.78;;
64842;SDS011;51310;52.198;5.422;2022-10-12T07:24:58;15.48;;;6.15;;
64842;SDS011;51310;52.198;5.422;2022-10-12T07:27:24;23.67;;;6.50;;
64842;SDS011;51310;52.198;5.422;2022-10-12T07:29:50;15.88;;;6.05;;
64842;SDS011;51310;52.198;5.422;2022-10-12T07:32:16;25.17;;;7.35;;
64842;SDS011;51310;52.198;5.422;2022-10-12T07:34:42;17.98;;;7.53;;
64842;SDS011;51310;52.198;5.422;2022-10-12T07:37:08;25.83;;;7.00;;
64842;SDS011;51310;52.198;5.422;2022-10-12T07:39:35;16.83;;;6.70;;
64842;SDS011;51310;52.198;5.422;2022-10-12T07:42:02;19.08;;;6.97;;
64842;SDS011;51310;52.198;5.422;2022-10-12T07:44:28;22.92;;;7.53;;
64842;SDS011;51310;52.198;5.422;2022-10-12T07:46:54;18.80;;;6.87;;
64842;SDS011;51310;52.198;5.422;2022-10-12T07:49:20;17.90;;;7.72;;
64842;SDS011;51310;52.198;5.422;2022-10-12T07:51:46;24.52;;;8.05;;
64842;SDS011;51310;52.198;5.422;2022-10-12T07:54:12;27.52;;;7.47;;
64842;SDS011;51310;52.198;5.422;2022-10-12T07:56:39;18.25;;;6.97;;
64842;SDS011;51310;52.198;5.422;2022-10-12T07:59:05;27.88;;;8.65;;
64842;SDS011;51310;52.198;5.422;2022-10-12T08:01:31;18.33;;;8.37;;
64842;SDS011;51310;52.198;5.422;2022-10-12T08:03:58;24.38;;;9.60;;
64842;SDS011;51310;52.198;5.422;2022-10-12T08:06:26;29.52;;;12.48;;
64842;SDS011;51310;52.198;5.422;2022-10-12T08:08:56;26.08;;;14.77;;
64842;SDS011;51310;52.198;5.422;2022-10-12T08:11:24;29.02;;;15.63;;
64842;SDS011;51310;52.198;5.422;2022-10-12T08:13:51;25.77;;;13.63;;
64842;SDS011;51310;52.198;5.422;2022-10-12T08:16:18;26.60;;;12.20;;
64842;SDS011;51310;52.198;5.422;2022-10-12T08:18:46;23.95;;;11.15;;
64842;SDS011;51310;52.198;5.422;2022-10-12T08:21:13;17.90;;;9.23;;
64842;SDS011;51310;52.198;5.422;2022-10-12T08:23:40;19.20;;;8.80;;
64842;SDS011;51310;52.198;5.422;2022-10-12T08:26:08;16.90;;;8.17;;
64842;SDS011;51310;52.198;5.422;2022-10-12T08:28:35;21.30;;;9.25;;
64842;SDS011;51310;52.198;5.422;2022-10-12T08:31:04;21.70;;;9.10;;
64842;SDS011;51310;52.198;5.422;2022-10-12T08:33:33;16.10;;;7.85;;
64842;SDS011;51310;52.198;5.422;2022-10-12T08:36:02;20.67;;;8.15;;
64842;SDS011;51310;52.198;5.422;2022-10-12T08:38:31;17.27;;;8.38;;
64842;SDS011;51310;52.198;5.422;2022-10-12T08:41:42;21.48;;;8.85;;
64842;SDS011;51310;52.198;5.422;2022-10-12T08:50:06;20.27;;;8.00;;
64842;SDS011;51310;52.198;5.422;2022-10-12T08:53:08;21.40;;;7.68;;
64842;SDS011;51310;52.198;5.422;2022-10-12T08:55:46;17.13;;;7.38;;
64842;SDS011;51310;52.198;5.422;2022-10-12T08:58:16;19.08;;;7.47;;
64842;SDS011;51310;52.198;5.422;2022-10-12T09:01:43;17.20;;;7.60;;
64842;SDS011;51310;52.198;5.422;2022-10-12T09:04:09;17.88;;;7.25;;
64842;SDS011;51310;52.198;5.422;2022-10-12T09:07:08;17.17;;;7.07;;
64842;SDS011;51310;52.198;5.422;2022-10-12T09:10:08;24.17;;;8.00;;
64842;SDS011;51310;52.198;5.422;2022-10-12T09:12:55;18.25;;;8.07;;
64842;SDS011;51310;52.198;5.422;2022-10-12T09:16:11;14.80;;;7.30;;
64842;SDS011;51310;52.198;5.422;2022-10-12T09:18:51;18.52;;;6.68;;
64842;SDS011;51310;52.198;5.422;2022-10-12T09:21:31;23.25;;;7.82;;
64842;SDS011;51310;52.198;5.422;2022-10-12T09:23:58;25.80;;;8.63;;
64842;SDS011;51310;52.198;5.422;2022-10-12T09:29:02;16.70;;;8.07;;
64842;SDS011;51310;52.198;5.422;2022-10-12T09:35:08;15.83;;;7.37;;
64842;SDS011;51310;52.198;5.422;2022-10-12T09:37:38;21.25;;;7.25;;
64842;SDS011;51310;52.198;5.422;2022-10-12T09:40:04;17.25;;;7.97;;
64842;SDS011;51310;52.198;5.422;2022-10-12T09:42:40;22.15;;;8.00;;
64842;SDS011;51310;52.198;5.422;2022-10-12T09:45:16;18.05;;;7.18;;
64842;SDS011;51310;52.198;5.422;2022-10-12T09:53:28;20.63;;;7.95;;
64842;SDS011;51310;52.198;5.422;2022-10-12T09:56:23;21.58;;;8.18;;
64842;SDS011;51310;52.198;5.422;2022-10-12T09:59:01;13.82;;;6.20;;
64842;SDS011;51310;52.198;5.422;2022-10-12T10:01:41;16.30;;;6.97;;
64842;SDS011;51310;52.198;5.422;2022-10-12T10:04:44;17.58;;;6.68;;
64842;SDS011;51310;52.198;5.422;2022-10-12T10:12:55;14.25;;;6.20;;
64842;SDS011;51310;52.198;5.422;2022-10-12T10:18:00;12.88;;;6.05;;
64842;SDS011;51310;52.198;5.422;2022-10-12T10:20:41;15.75;;;6.05;;
64842;SDS011;51310;52.198;5.422;2022-10-12T10:26:10;15.55;;;6.35;;
64842;SDS011;51310;52.198;5.422;2022-10-12T10:28:41;13.75;;;5.25;;
64842;SDS011;51310;52.198;5.422;2022-10-12T10:33:45;19.85;;;5.60;;
64842;SDS011;51310;52.198;5.422;2022-10-12T10:37:11;15.15;;;6.78;;
64842;SDS011;51310;52.198;5.422;2022-10-12T10:39:32;17.58;;;6.68;;
64842;SDS011;51310;52.198;5.422;2022-10-12T10:42:27;17.63;;;5.93;;
64842;SDS011;51310;52.198;5.422;2022-10-12T10:45:01;13.95;;;5.35;;
64842;SDS011;51310;52.198;5.422;2022-10-12T10:47:34;14.73;;;5.82;;
64842;SDS011;51310;52.198;5.422;2022-10-12T10:50:23;11.45;;;5.28;;
64842;SDS011;51310;52.198;5.422;2022-10-12T10:52:57;14.10;;;5.68;;
64842;SDS011;51310;52.198;5.422;2022-10-12T10:58:34;11.88;;;4.97;;
64842;SDS011;51310;52.198;5.422;2022-10-12T11:04:36;11.18;;;4.78;;
64842;SDS011;51310;52.198;5.422;2022-10-12T11:09:58;14.98;;;6.30;;
64842;SDS011;51310;52.198;5.422;2022-10-12T11:12:41;14.33;;;5.43;;
64842;SDS011;51310;52.198;5.422;2022-10-12T11:15:16;12.95;;;5.63;;
64842;SDS011;51310;52.198;5.422;2022-10-12T11:18:44;9.77;;;4.93;;
64842;SDS011;51310;52.198;5.422;2022-10-12T11:21:11;13.48;;;5.55;;
64842;SDS011;51310;52.198;5.422;2022-10-12T11:24:08;15.57;;;6.13;;
64842;SDS011;51310;52.198;5.422;2022-10-12T11:29:25;18.25;;;6.55;;
64842;SDS011;51310;52.198;5.422;2022-10-12T11:31:54;12.55;;;6.20;;
64842;SDS011;51310;52.198;5.422;2022-10-12T11:34:43;13.07;;;6.13;;
64842;SDS011;51310;52.198;5.422;2022-10-12T11:37:18;17.15;;;6.20;;
64842;SDS011;51310;52.198;5.422;2022-10-12T11:39:53;16.65;;;6.43;;
64842;SDS011;51310;52.198;5.422;2022-10-12T11:42:28;13.77;;;5.68;;
64842;SDS011;51310;52.198;5.422;2022-10-12T11:45:04;16.77;;;5.50;;
64842;SDS011;51310;52.198;5.422;2022-10-12T11:47:59;14.30;;;5.03;;
64842;SDS011;51310;52.198;5.422;2022-10-12T11:50:47;14.38;;;5.32;;
64842;SDS011;51310;52.198;5.422;2022-10-12T11:59:09;16.83;;;5.97;;
64842;SDS011;51310;52.198;5.422;2022-10-12T12:04:56;15.50;;;6.03;;
64842;SDS011;51310;52.198;5.422;2022-10-12T12:13:14;17.05;;;5.35;;
64842;SDS011;51310;52.198;5.422;2022-10-12T12:18:16;11.68;;;4.47;;
64842;SDS011;51310;52.198;5.422;2022-10-12T12:28:51;9.38;;;4.13;;
64842;SDS011;51310;52.198;5.422;2022-10-12T12:31:41;12.77;;;4.25;;
64842;SDS011;51310;52.198;5.422;2022-10-12T12:34:14;9.65;;;4.30;;
64842;SDS011;51310;52.198;5.422;2022-10-12T12:36:45;10.63;;;3.67;;
64842;SDS011;51310;52.198;5.422;2022-10-12T12:39:33;10.70;;;3.33;;
64842;SDS011;51310;52.198;5.422;2022-10-12T12:42:08;8.45;;;3.30;;
64842;SDS011;51310;52.198;5.422;2022-10-12T12:52:18;11.70;;;4.07;;
64842;SDS011;51310;52.198;5.422;2022-10-12T12:55:18;14.93;;;4.68;;
64842;SDS011;51310;52.198;5.422;2022-10-12T12:58:18;14.30;;;5.15;;
64842;SDS011;51310;52.198;5.422;2022-10-12T13:01:06;17.13;;;5.25;;
64842;SDS011;51310;52.198;5.422;2022-10-12T13:07:19;14.60;;;4.55;;
64842;SDS011;51310;52.198;5.422;2022-10-12T13:17:01;13.60;;;5.25;;
64842;SDS011;51310;52.198;5.422;2022-10-12T13:19:51;11.98;;;4.82;;
64842;SDS011;51310;52.198;5.422;2022-10-12T13:22:27;13.75;;;5.35;;
64842;SDS011;51310;52.198;5.422;2022-10-12T13:25:03;11.60;;;4.40;;
64842;SDS011;51310;52.198;5.422;2022-10-12T13:27:46;11.82;;;4.60;;
64842;SDS011;51310;52.198;5.422;2022-10-12T13:33:01;12.63;;;5.03;;
64842;SDS011;51310;52.198;5.422;2022-10-12T13:38:53;14.50;;;5.70;;
64842;SDS011;51310;52.198;5.422;2022-10-12T13:41:24;13.82;;;6.45;;
64842;SDS011;51310;52.198;5.422;2022-10-12T13:43:56;14.95;;;6.28;;
64842;SDS011;51310;52.198;5.422;2022-10-12T13:46:45;14.38;;;6.70;;
64842;SDS011;51310;52.198;5.422;2022-10-12T13:51:58;18.00;;;7.97;;
64842;SDS011;51310;52.198;5.422;2022-10-12T13:54:50;16.67;;;7.75;;
64842;SDS011;51310;52.198;5.422;2022-10-12T14:00:08;17.17;;;6.97;;
64842;SDS011;51310;52.198;5.422;2022-10-12T14:02:40;14.70;;;7.68;;
64842;SDS011;51310;52.198;5.422;2022-10-12T14:05:23;16.67;;;8.50;;
64842;SDS011;51310;52.198;5.422;2022-10-12T14:07:54;19.17;;;8.43;;
64842;SDS011;51310;52.198;5.422;2022-10-12T14:10:34;17.48;;;9.07;;
64842;SDS011;51310;52.198;5.422;2022-10-12T14:13:02;17.73;;;8.55;;
64842;SDS011;51310;52.198;5.422;2022-10-12T14:15:34;19.27;;;8.55;;
64842;SDS011;51310;52.198;5.422;2022-10-12T14:18:29;22.05;;;9.25;;
64842;SDS011;51310;52.198;5.422;2022-10-12T14:26:38;16.30;;;8.80;;
64842;SDS011;51310;52.198;5.422;2022-10-12T14:29:23;16.95;;;9.30;;
64842;SDS011;51310;52.198;5.422;2022-10-12T14:31:54;21.00;;;9.43;;
64842;SDS011;51310;52.198;5.422;2022-10-12T14:39:33;19.67;;;9.93;;
64842;SDS011;51310;52.198;5.422;2022-10-12T14:42:01;26.70;;;10.77;;
64842;SDS011;51310;52.198;5.422;2022-10-12T14:44:42;19.75;;;11.18;;
64842;SDS011;51310;52.198;5.422;2022-10-12T14:47:29;21.75;;;11.02;;
64842;SDS011;51310;52.198;5.422;2022-10-12T14:50:04;21.87;;;9.47;;
64842;SDS011;51310;52.198;5.422;2022-10-12T14:55:34;14.47;;;8.87;;
64842;SDS011;51310;52.198;5.422;2022-10-12T14:58:00;23.27;;;9.63;;
64842;SDS011;51310;52.198;5.422;2022-10-12T15:00:28;20.05;;;9.55;;
64842;SDS011;51310;52.198;5.422;2022-10-12T15:02:56;17.08;;;8.13;;
64842;SDS011;51310;52.198;5.422;2022-10-12T15:05:23;22.15;;;8.35;;
64842;SDS011;51310;52.198;5.422;2022-10-12T15:07:53;13.97;;;7.47;;
64842;SDS011;51310;52.198;5.422;2022-10-12T15:10:21;16.17;;;7.50;;
64842;SDS011;51310;52.198;5.422;2022-10-12T15:12:48;16.13;;;6.75;;
64842;SDS011;51310;52.198;5.422;2022-10-12T15:15:17;16.73;;;7.32;;
64842;SDS011;51310;52.198;5.422;2022-10-12T15:18:03;16.02;;;7.28;;
64842;SDS011;51310;52.198;5.422;2022-10-12T15:20:30;17.73;;;7.00;;
64842;SDS011;51310;52.198;5.422;2022-10-12T15:22:57;17.00;;;6.93;;
64842;SDS011;51310;52.198;5.422;2022-10-12T15:27:59;16.40;;;7.35;;
64842;SDS011;51310;52.198;5.422;2022-10-12T15:30:26;22.67;;;7.30;;
64842;SDS011;51310;52.198;5.422;2022-10-12T15:32:52;16.33;;;7.15;;
64842;SDS011;51310;52.198;5.422;2022-10-12T15:35:22;16.85;;;7.15;;
64842;SDS011;51310;52.198;5.422;2022-10-12T15:37:53;16.75;;;6.85;;
64842;SDS011;51310;52.198;5.422;2022-10-12T15:40:22;15.85;;;6.75;;
64842;SDS011;51310;52.198;5.422;2022-10-12T15:42:51;16.13;;;5.72;;
64842;SDS011;51310;52.198;5.422;2022-10-12T15:47:56;17.37;;;6.00;;
64842;SDS011;51310;52.198;5.422;2022-10-12T15:50:27;18.70;;;5.07;;
64842;SDS011;51310;52.198;5.422;2022-10-12T15:53:01;12.45;;;4.80;;
64842;SDS011;51310;52.198;5.422;2022-10-12T15:55:28;13.88;;;4.85;;
64842;SDS011;51310;52.198;5.422;2022-10-12T15:57:56;12.57;;;5.00;;
64842;SDS011;51310;52.198;5.422;2022-10-12T16:00:24;15.43;;;5.18;;
64842;SDS011;51310;52.198;5.422;2022-10-12T16:02:54;14.40;;;5.35;;
64842;SDS011;51310;52.198;5.422;2022-10-12T16:08:02;19.23;;;5.63;;
64842;SDS011;51310;52.198;5.422;2022-10-12T16:10:32;15.00;;;5.32;;
64842;SDS011;51310;52.198;5.422;2022-10-12T16:13:04;16.35;;;4.60;;
64842;SDS011;51310;52.198;5.422;2022-10-12T16:15:34;12.30;;;4.90;;
64842;SDS011;51310;52.198;5.422;2022-10-12T16:18:01;16.92;;;5.05;;
64842;SDS011;51310;52.198;5.422;2022-10-12T16:20:30;12.98;;;4.53;;
64842;SDS011;51310;52.198;5.422;2022-10-12T16:23:01;11.13;;;4.45;;
64842;SDS011;51310;52.198;5.422;2022-10-12T16:25:28;11.68;;;4.35;;
64842;SDS011;51310;52.198;5.422;2022-10-12T16:27:55;13.32;;;4.63;;
64842;SDS011;51310;52.198;5.422;2022-10-12T16:30:22;11.20;;;5.00;;
64842;SDS011;51310;52.198;5.422;2022-10-12T16:32:51;9.85;;;4.10;;
64842;SDS011;51310;52.198;5.422;2022-10-12T16:35:17;15.50;;;4.43;;
64842;SDS011;51310;52.198;5.422;2022-10-12T16:37:44;11.65;;;4.20;;
64842;SDS011;51310;52.198;5.422;2022-10-12T16:40:10;13.68;;;4.38;;
64842;SDS011;51310;52.198;5.422;2022-10-12T16:42:37;10.70;;;4.38;;
64842;SDS011;51310;52.198;5.422;2022-10-12T16:45:03;9.73;;;3.90;;
64842;SDS011;51310;52.198;5.422;2022-10-12T16:47:30;12.10;;;4.80;;
64842;SDS011;51310;52.198;5.422;2022-10-12T16:49:56;10.18;;;4.50;;
64842;SDS011;51310;52.198;5.422;2022-10-12T16:52:22;9.65;;;4.18;;
64842;SDS011;51310;52.198;5.422;2022-10-12T16:54:53;11.48;;;4.35;;
64842;SDS011;51310;52.198;5.422;2022-10-12T16:57:20;11.40;;;4.83;;
64842;SDS011;51310;52.198;5.422;2022-10-12T16:59:48;11.07;;;4.55;;
64842;SDS011;51310;52.198;5.422;2022-10-12T17:02:15;11.45;;;4.28;;
64842;SDS011;51310;52.198;5.422;2022-10-12T17:04:43;10.00;;;4.22;;
64842;SDS011;51310;52.198;5.422;2022-10-12T17:07:10;10.77;;;5.03;;
64842;SDS011;51310;52.198;5.422;2022-10-12T17:09:36;12.07;;;4.70;;
64842;SDS011;51310;52.198;5.422;2022-10-12T17:12:02;13.88;;;6.50;;
64842;SDS011;51310;52.198;5.422;2022-10-12T17:14:28;15.13;;;4.85;;
64842;SDS011;51310;52.198;5.422;2022-10-12T17:16:54;10.77;;;4.85;;
64842;SDS011;51310;52.198;5.422;2022-10-12T17:19:25;8.93;;;4.30;;
64842;SDS011;51310;52.198;5.422;2022-10-12T17:21:56;10.52;;;4.07;;